createdAt,value
2019-06-10T00:00:50.803Z,12.97
2019-06-10T00:01:51.455Z,12.92
2019-06-10T00:02:50.758Z,12.86
2019-06-10T00:03:51.713Z,12.88
2019-06-10T00:04:50.802Z,12.76
2019-06-10T00:05:51.798Z,12.90
2019-06-10T00:06:50.954Z,12.82
2019-06-10T00:07:51.636Z,12.68
2019-06-10T00:08:50.652Z,12.61
2019-06-10T00:09:51.155Z,12.60
2019-06-10T00:10:51.088Z,12.65
2019-06-10T00:11:51.497Z,12.65
2019-06-10T00:12:51.741Z,12.68
2019-06-10T00:13:50.691Z,12.71
2019-06-10T00:14:51.011Z,12.79
2019-06-10T00:15:51.524Z,12.62
2019-06-10T00:16:50.793Z,12.61
2019-06-10T00:17:55.661Z,12.70
2019-06-10T00:18:51.012Z,12.68
2019-06-10T00:19:51.177Z,12.70
2019-06-10T00:20:51.244Z,12.69
2019-06-10T00:21:50.966Z,12.76
2019-06-10T00:22:51.554Z,12.78
2019-06-10T00:23:51.849Z,12.72
2019-06-10T00:24:52.062Z,12.75
2019-06-10T00:25:51.629Z,12.72
2019-06-10T00:26:51.080Z,12.70
2019-06-10T00:27:51.190Z,12.70
2019-06-10T00:28:51.330Z,12.66
2019-06-10T00:29:51.264Z,12.60
2019-06-10T00:30:51.603Z,12.68
2019-06-10T00:31:50.827Z,12.53
2019-06-10T00:32:51.542Z,12.55
2019-06-10T00:33:51.972Z,12.68
2019-06-10T00:34:50.853Z,12.67
2019-06-10T00:35:51.514Z,12.61
2019-06-10T00:36:50.965Z,12.56
2019-06-10T00:37:51.225Z,12.58
2019-06-10T00:38:51.703Z,12.58
2019-06-10T00:39:53.886Z,12.57
2019-06-10T00:40:51.308Z,12.60
2019-06-10T00:41:52.129Z,12.57
2019-06-10T00:42:50.708Z,12.56
2019-06-10T00:43:51.702Z,12.61
2019-06-10T00:44:50.889Z,12.66
2019-06-10T00:45:51.368Z,12.62
2019-06-10T00:46:51.582Z,12.64
2019-06-10T00:47:52.070Z,12.71
2019-06-10T00:48:50.911Z,12.69
2019-06-10T00:49:51.480Z,12.70
2019-06-10T00:50:51.827Z,12.80
2019-06-10T00:51:50.903Z,12.79
2019-06-10T00:52:51.654Z,12.78
2019-06-10T00:53:51.466Z,12.76
2019-06-10T00:54:51.949Z,12.74
2019-06-10T00:55:51.530Z,12.79
2019-06-10T00:56:51.707Z,12.67
2019-06-10T00:57:50.962Z,12.68
2019-06-10T00:58:51.372Z,12.73
2019-06-10T00:59:50.784Z,12.67
2019-06-10T01:00:51.627Z,12.62
2019-06-10T01:01:50.864Z,12.69
2019-06-10T01:02:51.828Z,12.72
2019-06-10T01:03:50.921Z,12.76
2019-06-10T01:04:51.400Z,12.79
2019-06-10T01:05:50.936Z,12.75
2019-06-10T01:06:51.439Z,12.77
2019-06-10T01:07:50.829Z,12.78
2019-06-10T01:08:51.241Z,12.89
2019-06-10T01:09:51.701Z,12.85
2019-06-10T01:10:52.265Z,12.81
2019-06-10T01:11:51.871Z,12.75
2019-06-10T01:12:51.318Z,12.74
2019-06-10T01:13:50.793Z,12.81
2019-06-10T01:14:51.680Z,12.80
2019-06-10T01:15:51.122Z,12.75
2019-06-10T01:16:50.631Z,12.75
2019-06-10T01:17:51.112Z,12.70
2019-06-10T01:18:53.216Z,12.70
2019-06-10T01:19:50.871Z,12.75
2019-06-10T01:20:51.696Z,12.77
2019-06-10T01:21:51.199Z,12.70
2019-06-10T01:22:51.641Z,12.72
2019-06-10T01:23:51.010Z,12.78
2019-06-10T01:24:51.037Z,12.72
2019-06-10T01:25:51.043Z,12.71
2019-06-10T01:26:50.539Z,12.70
2019-06-10T01:27:51.512Z,12.80
2019-06-10T01:28:51.610Z,12.72
2019-06-10T01:29:51.137Z,12.75
2019-06-10T01:30:51.683Z,12.73
2019-06-10T01:31:51.221Z,12.69
2019-06-10T01:32:50.630Z,12.76
2019-06-10T01:33:51.374Z,12.76
2019-06-10T01:34:50.809Z,12.74
2019-06-10T01:35:51.520Z,12.77
2019-06-10T01:36:50.913Z,12.76
2019-06-10T01:37:51.851Z,12.73
2019-06-10T01:38:51.131Z,12.70
2019-06-10T01:39:51.518Z,12.66
2019-06-10T01:40:51.008Z,12.65
2019-06-10T01:41:51.216Z,12.67
2019-06-10T01:42:50.633Z,12.62
2019-06-10T01:43:51.252Z,12.49
2019-06-10T01:44:50.703Z,12.46
2019-06-10T01:45:51.073Z,12.41
2019-06-10T01:46:51.608Z,12.37
2019-06-10T01:47:51.123Z,12.34
2019-06-10T01:48:52.138Z,12.48
2019-06-10T01:49:51.716Z,12.48
2019-06-10T01:50:51.276Z,12.58
2019-06-10T01:51:51.639Z,12.60
2019-06-10T01:52:51.589Z,12.60
2019-06-10T01:53:51.313Z,12.61
2019-06-10T01:54:51.520Z,12.64
2019-06-10T01:55:52.020Z,12.67
2019-06-10T01:56:51.021Z,12.65
2019-06-10T01:57:51.839Z,12.58
2019-06-10T01:58:51.324Z,12.69
2019-06-10T01:59:50.896Z,12.54
2019-06-10T02:00:50.743Z,12.57
2019-06-10T02:01:51.775Z,12.57
2019-06-10T02:02:52.413Z,12.58
2019-06-10T02:03:51.887Z,12.56
2019-06-10T02:04:51.774Z,12.59
2019-06-10T02:05:51.697Z,12.62
2019-06-10T02:06:51.149Z,12.65
2019-06-10T02:07:51.643Z,12.61
2019-06-10T02:08:51.021Z,12.62
2019-06-10T02:09:51.791Z,12.66
2019-06-10T02:10:50.975Z,12.64
2019-06-10T02:11:51.383Z,12.64
2019-06-10T02:12:50.843Z,12.67
2019-06-10T02:13:51.545Z,12.66
2019-06-10T02:14:50.897Z,12.65
2019-06-10T02:15:51.384Z,12.62
2019-06-10T02:16:50.660Z,12.64
2019-06-10T02:17:50.975Z,12.68
2019-06-10T02:19:00.262Z,12.67
2019-06-10T02:19:50.868Z,12.67
2019-06-10T02:20:51.435Z,12.66
2019-06-10T02:21:51.072Z,12.69
2019-06-10T02:22:51.550Z,12.72
2019-06-10T02:23:52.073Z,12.72
2019-06-10T02:24:50.672Z,12.69
2019-06-10T02:25:51.282Z,12.68
2019-06-10T02:26:51.623Z,12.69
2019-06-10T02:27:50.754Z,12.69
2019-06-10T02:28:51.220Z,12.70
2019-06-10T02:29:50.733Z,12.69
2019-06-10T02:30:51.991Z,12.69
2019-06-10T02:31:52.227Z,12.70
2019-06-10T02:32:52.395Z,12.68
2019-06-10T02:33:52.416Z,12.66
2019-06-10T02:35:03.609Z,12.71
2019-06-10T02:35:50.005Z,12.72
2019-06-10T02:36:53.451Z,12.65
2019-06-10T02:37:50.236Z,12.66
2019-06-10T02:38:53.712Z,12.73
2019-06-10T02:39:50.158Z,12.74
2019-06-10T02:40:50.005Z,12.75
2019-06-10T02:41:53.319Z,12.70
2019-06-10T02:42:50.221Z,12.68
2019-06-10T02:43:53.181Z,12.67
2019-06-10T02:44:53.886Z,12.74
2019-06-10T02:45:52.899Z,12.83
2019-06-10T02:46:50.186Z,12.78
2019-06-10T02:47:53.122Z,12.74
2019-06-10T02:48:50.058Z,12.77
2019-06-10T02:49:59.026Z,12.70
2019-06-10T02:50:53.557Z,12.76
2019-06-10T02:51:50.059Z,12.79
2019-06-10T02:52:52.932Z,12.79
2019-06-10T02:53:53.539Z,12.73
2019-06-10T02:54:53.598Z,12.76
2019-06-10T02:55:53.568Z,12.93
2019-06-10T02:56:53.458Z,13.19
2019-06-10T02:57:53.097Z,13.13
2019-06-10T02:58:53.225Z,13.26
2019-06-10T02:59:50.151Z,13.30
2019-06-10T03:00:50.000Z,13.31
2019-06-10T03:01:50.005Z,13.19
2019-06-10T03:02:52.942Z,13.12
2019-06-10T03:03:53.935Z,13.04
2019-06-10T03:04:50.246Z,13.19
2019-06-10T03:05:53.417Z,13.01
2019-06-10T03:06:50.152Z,12.82
2019-06-10T03:07:53.111Z,12.83
2019-06-10T03:08:50.285Z,12.66
2019-06-10T03:09:53.447Z,12.58
2019-06-10T03:10:50.075Z,12.99
2019-06-10T03:11:53.297Z,13.09
2019-06-10T03:12:52.656Z,13.08
2019-06-10T03:13:50.082Z,13.10
2019-06-10T03:14:52.504Z,13.09
2019-06-10T03:15:52.238Z,13.11
2019-06-10T03:16:52.576Z,13.15
2019-06-10T03:17:52.159Z,13.06
2019-06-10T03:18:52.393Z,12.99
2019-06-10T03:19:52.965Z,12.96
2019-06-10T03:20:50.029Z,13.09
2019-06-10T03:21:52.054Z,13.15
2019-06-10T03:22:52.413Z,13.14
2019-06-10T03:23:50.039Z,13.18
2019-06-10T03:24:52.282Z,13.20
2019-06-10T03:25:50.066Z,13.24
2019-06-10T03:26:52.183Z,13.24
2019-06-10T03:27:52.437Z,13.28
2019-06-10T03:28:52.017Z,13.16
2019-06-10T03:29:52.566Z,13.17
2019-06-10T03:30:56.924Z,13.11
2019-06-10T03:31:54.757Z,13.20
2019-06-10T03:32:50.122Z,13.12
2019-06-10T03:33:53.896Z,13.10
2019-06-10T03:34:54.415Z,13.14
2019-06-10T03:35:52.182Z,13.23
2019-06-10T03:36:50.137Z,13.28
2019-06-10T03:37:50.045Z,13.26
2019-06-10T03:38:50.096Z,13.25
2019-06-10T03:39:50.224Z,13.22
2019-06-10T03:40:52.349Z,13.16
2019-06-10T03:41:50.107Z,13.10
2019-06-10T03:42:52.027Z,13.05
2019-06-10T03:43:50.125Z,12.98
2019-06-10T03:44:52.420Z,12.96
2019-06-10T03:45:50.228Z,12.94
2019-06-10T03:46:52.207Z,12.87
2019-06-10T03:47:52.591Z,12.92
2019-06-10T03:48:52.482Z,12.88
2019-06-10T03:49:52.766Z,12.90
2019-06-10T03:50:52.345Z,12.88
2019-06-10T03:51:50.082Z,12.86
2019-06-10T03:52:52.316Z,13.00
2019-06-10T03:53:50.116Z,13.00
2019-06-10T03:54:52.011Z,12.99
2019-06-10T03:55:52.528Z,12.91
2019-06-10T03:56:52.111Z,12.88
2019-06-10T03:57:52.289Z,12.84
2019-06-10T03:58:51.987Z,12.80
2019-06-10T03:59:50.186Z,12.77
2019-06-10T04:00:52.267Z,12.83
2019-06-10T04:01:52.747Z,12.79
2019-06-10T04:02:50.128Z,12.88
2019-06-10T04:03:50.194Z,12.91
2019-06-10T04:04:52.223Z,13.03
2019-06-10T04:05:52.562Z,13.12
2019-06-10T04:06:53.046Z,13.03
2019-06-10T04:07:52.575Z,13.10
2019-06-10T04:08:52.087Z,13.05
2019-06-10T04:09:52.495Z,13.08
2019-06-10T04:10:52.094Z,12.99
2019-06-10T04:11:50.107Z,12.96
2019-06-10T04:12:52.247Z,13.02
2019-06-10T04:13:50.189Z,12.98
2019-06-10T04:14:52.071Z,12.97
2019-06-10T04:15:50.164Z,12.93
2019-06-10T04:16:52.388Z,12.98
2019-06-10T04:17:50.181Z,13.01
2019-06-10T04:18:50.277Z,13.01
2019-06-10T04:20:07.548Z,13.01
2019-06-10T04:20:52.740Z,13.04
2019-06-10T04:21:50.105Z,13.06
2019-06-10T04:22:52.171Z,13.12
2019-06-10T04:23:52.656Z,13.09
2019-06-10T04:24:52.023Z,13.10
2019-06-10T04:25:52.533Z,13.14
2019-06-10T04:26:52.143Z,13.17
2019-06-10T04:27:52.322Z,13.15
2019-06-10T04:28:50.142Z,13.12
2019-06-10T04:29:52.375Z,13.09
2019-06-10T04:30:50.192Z,13.09
2019-06-10T04:31:52.257Z,13.08
2019-06-10T04:32:50.191Z,13.08
2019-06-10T04:33:52.259Z,13.11
2019-06-10T04:34:52.856Z,13.11
2019-06-10T04:35:52.004Z,13.14
2019-06-10T04:36:52.424Z,13.16
2019-06-10T04:37:52.030Z,13.24
2019-06-10T04:38:52.348Z,13.44
2019-06-10T04:39:50.152Z,13.49
2019-06-10T04:40:52.412Z,13.44
2019-06-10T04:41:50.126Z,13.43
2019-06-10T04:42:52.399Z,13.58
2019-06-10T04:43:50.190Z,13.57
2019-06-10T04:44:52.434Z,13.56
2019-06-10T04:45:52.615Z,13.57
2019-06-10T04:46:52.064Z,13.49
2019-06-10T04:47:52.329Z,13.42
2019-06-10T04:48:50.199Z,13.32
2019-06-10T04:49:52.195Z,13.26
2019-06-10T04:50:50.212Z,13.23
2019-06-10T04:51:52.244Z,13.17
2019-06-10T04:52:50.085Z,13.20
2019-06-10T04:53:52.399Z,13.23
2019-06-10T04:54:52.611Z,13.15
2019-06-10T04:55:52.124Z,13.16
2019-06-10T04:56:52.740Z,13.14
2019-06-10T04:57:52.102Z,13.15
2019-06-10T04:58:52.336Z,13.20
2019-06-10T04:59:50.201Z,13.19
2019-06-10T05:00:52.208Z,13.32
2019-06-10T05:01:50.185Z,13.23
2019-06-10T05:02:52.227Z,13.16
2019-06-10T05:03:52.451Z,13.15
2019-06-10T05:04:50.266Z,13.16
2019-06-10T05:05:52.568Z,13.15
2019-06-10T05:06:52.552Z,13.23
2019-06-10T05:07:52.071Z,13.19
2019-06-10T05:08:50.138Z,13.09
2019-06-10T05:09:52.397Z,13.08
2019-06-10T05:10:50.150Z,13.07
2019-06-10T05:11:52.095Z,13.08
2019-06-10T05:12:52.442Z,13.11
2019-06-10T05:13:50.241Z,13.16
2019-06-10T05:14:52.549Z,13.12
2019-06-10T05:15:52.578Z,13.11
2019-06-10T05:16:50.216Z,13.10
2019-06-10T05:17:52.518Z,13.12
2019-06-10T05:18:52.407Z,13.13
2019-06-10T05:19:50.301Z,13.16
2019-06-10T05:20:57.686Z,13.19
2019-06-10T05:21:52.299Z,13.22
2019-06-10T05:22:50.176Z,13.20
2019-06-10T05:23:52.135Z,13.18
2019-06-10T05:24:52.637Z,13.19
2019-06-10T05:25:52.663Z,13.19
2019-06-10T05:26:52.558Z,13.33
2019-06-10T05:27:52.230Z,13.37
2019-06-10T05:28:52.265Z,13.39
2019-06-10T05:29:52.374Z,13.43
2019-06-10T05:30:50.233Z,13.40
2019-06-10T05:31:52.145Z,13.53
2019-06-10T05:32:52.275Z,13.57
2019-06-10T05:33:50.226Z,13.55
2019-06-10T05:34:52.665Z,13.56
2019-06-10T05:35:50.236Z,13.66
2019-06-10T05:36:52.420Z,13.69
2019-06-10T05:37:50.149Z,13.71
2019-06-10T05:38:52.383Z,13.79
2019-06-10T05:39:52.562Z,13.93
2019-06-10T05:40:52.155Z,13.94
2019-06-10T05:41:50.871Z,13.84
2019-06-10T05:42:50.175Z,13.90
2019-06-10T05:43:52.298Z,13.92
2019-06-10T05:44:52.295Z,13.92
2019-06-10T05:45:50.276Z,13.90
2019-06-10T05:46:52.643Z,13.89
2019-06-10T05:47:50.277Z,13.94
2019-06-10T05:48:52.419Z,13.91
2019-06-10T05:49:52.795Z,13.96
2019-06-10T05:51:00.107Z,13.90
2019-06-10T05:51:52.574Z,13.87
2019-06-10T05:52:52.020Z,13.85
2019-06-10T05:53:52.565Z,14.03
2019-06-10T05:54:52.137Z,14.21
2019-06-10T05:55:52.820Z,14.03
2019-06-10T05:56:52.188Z,14.04
2019-06-10T05:57:50.333Z,13.94
2019-06-10T05:58:52.277Z,14.06
2019-06-10T05:59:52.152Z,14.10
2019-06-10T06:00:50.293Z,14.10
2019-06-10T06:01:53.673Z,14.02
2019-06-10T06:02:52.257Z,14.10
2019-06-10T06:03:52.842Z,14.10
2019-06-10T06:04:50.303Z,14.15
2019-06-10T06:05:52.349Z,14.31
2019-06-10T06:06:53.008Z,14.42
2019-06-10T06:08:02.289Z,14.22
2019-06-10T06:08:50.297Z,14.14
2019-06-10T06:09:50.192Z,14.04
2019-06-10T06:10:52.637Z,13.98
2019-06-10T06:11:52.307Z,13.96
2019-06-10T06:12:52.535Z,13.77
2019-06-10T06:13:52.273Z,13.80
2019-06-10T06:14:52.611Z,13.85
2019-06-10T06:15:52.710Z,13.84
2019-06-10T06:16:53.180Z,13.87
2019-06-10T06:18:04.071Z,13.92
2019-06-10T06:18:52.477Z,13.82
2019-06-10T06:19:50.254Z,13.84
2019-06-10T06:20:52.599Z,13.88
2019-06-10T06:21:52.856Z,13.93
2019-06-10T06:22:52.221Z,14.00
2019-06-10T06:23:52.600Z,14.08
2019-06-10T06:24:52.301Z,14.37
2019-06-10T06:25:52.949Z,14.51
2019-06-10T06:26:50.248Z,14.57
2019-06-10T06:27:52.394Z,14.56
2019-06-10T06:28:50.234Z,14.75
2019-06-10T06:29:52.330Z,14.57
2019-06-10T06:30:52.682Z,14.65
2019-06-10T06:31:52.373Z,14.92
2019-06-10T06:32:50.262Z,15.19
2019-06-10T06:33:52.676Z,14.93
2019-06-10T06:34:52.505Z,15.00
2019-06-10T06:35:52.437Z,15.10
2019-06-10T06:36:52.689Z,14.68
2019-06-10T06:37:50.205Z,14.61
2019-06-10T06:38:52.869Z,14.68
2019-06-10T06:39:52.336Z,14.91
2019-06-10T06:40:53.518Z,14.87
2019-06-10T06:41:52.712Z,14.63
2019-06-10T06:42:52.442Z,14.75
2019-06-10T06:43:52.778Z,15.02
2019-06-10T06:44:52.386Z,15.16
2019-06-10T06:45:52.980Z,15.23
2019-06-10T06:46:50.425Z,15.26
2019-06-10T06:47:52.454Z,15.03
2019-06-10T06:48:52.996Z,15.05
2019-06-10T06:49:50.337Z,15.32
2019-06-10T06:51:02.101Z,15.14
2019-06-10T06:51:56.073Z,15.06
2019-06-10T06:53:18.727Z,14.91
2019-06-10T06:53:52.012Z,14.89
2019-06-10T06:54:52.889Z,14.81
2019-06-10T06:55:53.585Z,14.83
2019-06-10T06:56:50.262Z,14.87
2019-06-10T06:57:52.832Z,14.99
2019-06-10T06:58:52.468Z,15.29
2019-06-10T06:59:52.459Z,15.64
2019-06-10T07:01:03.672Z,15.72
2019-06-10T07:01:52.339Z,15.92
2019-06-10T07:02:52.790Z,15.82
2019-06-10T07:03:53.283Z,15.70
2019-06-10T07:04:52.408Z,15.58
2019-06-10T07:05:52.899Z,15.52
2019-06-10T07:06:53.395Z,15.48
2019-06-10T07:07:52.627Z,15.58
2019-06-10T07:09:03.733Z,15.60
2019-06-10T07:09:52.529Z,15.62
2019-06-10T07:10:52.249Z,15.66
2019-06-10T07:11:52.862Z,15.73
2019-06-10T07:12:52.343Z,15.85
2019-06-10T07:13:53.307Z,15.86
2019-06-10T07:14:52.475Z,15.89
2019-06-10T07:15:50.357Z,15.91
2019-06-10T07:16:52.801Z,16.00
2019-06-10T07:17:52.538Z,16.08
2019-06-10T07:18:50.612Z,16.12
2019-06-10T07:19:52.731Z,16.12
2019-06-10T07:20:50.427Z,16.11
2019-06-10T07:22:05.584Z,16.25
2019-06-10T07:22:53.153Z,16.49
2019-06-10T07:23:52.610Z,16.60
2019-06-10T07:24:52.661Z,16.39
2019-06-10T07:25:50.392Z,15.51
2019-06-10T07:26:54.578Z,15.35
2019-06-10T07:27:52.570Z,14.98
2019-06-10T07:28:50.319Z,14.86
2019-06-10T07:29:52.766Z,14.99
2019-06-10T07:30:52.803Z,15.12
2019-06-10T07:31:53.365Z,15.10
2019-06-10T07:32:52.692Z,15.18
2019-06-10T07:33:52.653Z,15.34
2019-06-10T07:34:52.464Z,15.63
2019-06-10T07:35:52.503Z,15.80
2019-06-10T07:36:52.167Z,16.04
2019-06-10T07:37:52.330Z,15.73
2019-06-10T07:38:53.580Z,15.92
2019-06-10T07:39:52.339Z,16.15
2019-06-10T07:40:52.851Z,16.32
2019-06-10T07:41:52.869Z,16.41
2019-06-10T07:42:50.279Z,16.39
2019-06-10T07:43:52.597Z,16.42
2019-06-10T07:44:50.303Z,16.36
2019-06-10T07:45:53.211Z,16.38
2019-06-10T07:46:52.832Z,16.43
2019-06-10T07:47:52.306Z,16.59
2019-06-10T07:48:55.704Z,16.63
2019-06-10T07:49:52.306Z,16.73
2019-06-10T07:50:53.048Z,16.82
2019-06-10T07:51:52.304Z,16.98
2019-06-10T07:52:52.773Z,17.36
2019-06-10T07:53:52.625Z,17.69
2019-06-10T07:54:52.773Z,18.02
2019-06-10T07:55:50.476Z,18.23
2019-06-10T07:56:53.027Z,18.36
2019-06-10T07:57:52.908Z,17.88
2019-06-10T07:58:52.529Z,18.16
2019-06-10T07:59:52.243Z,18.14
2019-06-10T08:00:53.132Z,18.21
2019-06-10T08:01:52.447Z,17.90
2019-06-10T08:02:52.873Z,16.69
2019-06-10T08:03:52.681Z,16.87
2019-06-10T08:04:53.898Z,17.05
2019-06-10T08:05:52.559Z,17.31
2019-06-10T08:06:52.905Z,17.44
2019-06-10T08:07:50.426Z,17.70
2019-06-10T08:08:52.853Z,18.03
2019-06-10T08:09:53.086Z,18.31
2019-06-10T08:10:52.810Z,18.38
2019-06-10T08:11:50.427Z,18.39
2019-06-10T08:12:52.478Z,18.39
2019-06-10T08:13:50.387Z,17.69
2019-06-10T08:14:53.336Z,17.87
2019-06-10T08:15:53.063Z,18.09
2019-06-10T08:16:52.897Z,18.21
2019-06-10T08:17:52.911Z,18.26
2019-06-10T08:19:15.965Z,18.28
2019-06-10T08:19:51.838Z,18.40
2019-06-10T08:20:52.787Z,18.41
2019-06-10T08:21:50.491Z,18.36
2019-06-10T08:22:55.194Z,18.21
2019-06-10T08:23:50.452Z,18.54
2019-06-10T08:24:52.367Z,18.63
2019-06-10T08:25:56.611Z,18.65
2019-06-10T08:26:52.907Z,18.52
2019-06-10T08:27:52.952Z,18.54
2019-06-10T08:28:52.805Z,18.68
2019-06-10T08:30:07.628Z,18.95
2019-06-10T08:30:52.952Z,18.83
2019-06-10T08:31:52.991Z,18.46
2019-06-10T08:32:53.335Z,18.90
2019-06-10T08:33:52.781Z,18.95
2019-06-10T08:34:52.857Z,19.28
2019-06-10T08:35:59.120Z,19.48
2019-06-10T08:36:53.958Z,19.65
2019-06-10T08:37:52.471Z,20.16
2019-06-10T08:38:52.735Z,20.54
2019-06-10T08:39:52.959Z,21.07
2019-06-10T08:40:52.478Z,20.51
2019-06-10T08:41:52.665Z,20.58
2019-06-10T08:42:50.464Z,20.39
2019-06-10T08:43:52.633Z,20.11
2019-06-10T08:44:50.359Z,20.03
2019-06-10T08:45:52.792Z,20.31
2019-06-10T08:46:52.469Z,20.63
2019-06-10T08:47:54.024Z,20.68
2019-06-10T08:48:52.345Z,20.83
2019-06-10T08:49:52.937Z,20.79
2019-06-10T08:50:52.977Z,20.68
2019-06-10T08:51:53.115Z,20.64
2019-06-10T08:53:05.738Z,21.50
2019-06-10T08:53:52.924Z,21.58
2019-06-10T08:54:53.667Z,21.45
2019-06-10T08:55:53.273Z,21.55
2019-06-10T08:56:51.604Z,21.68
2019-06-10T08:57:51.576Z,22.26
2019-06-10T08:58:51.607Z,22.28
2019-06-10T08:59:53.161Z,21.85
2019-06-10T09:00:53.291Z,21.43
2019-06-10T09:01:56.199Z,20.90
2019-06-10T09:02:53.682Z,20.69
2019-06-10T09:03:51.275Z,20.50
2019-06-10T09:04:53.454Z,20.28
2019-06-10T09:05:51.760Z,20.66
2019-06-10T09:06:51.491Z,20.64
2019-06-10T09:07:54.223Z,20.45
2019-06-10T09:08:54.159Z,19.97
2019-06-10T09:09:53.271Z,19.79
2019-06-10T09:10:52.521Z,19.67
2019-06-10T09:11:53.884Z,19.98
2019-06-10T09:12:54.159Z,20.27
2019-06-10T09:13:50.963Z,19.77
2019-06-10T09:14:52.560Z,20.05
2019-06-10T09:16:07.117Z,20.14
2019-06-10T09:16:51.409Z,19.98
2019-06-10T09:17:55.313Z,19.79
2019-06-10T09:18:52.027Z,20.03
2019-06-10T09:19:51.370Z,19.96
2019-06-10T09:20:55.290Z,19.65
2019-06-10T09:21:53.346Z,19.80
2019-06-10T09:23:11.214Z,20.05
2019-06-10T09:23:56.807Z,19.60
2019-06-10T09:24:52.375Z,19.94
2019-06-10T09:25:53.910Z,20.00
2019-06-10T09:26:52.475Z,19.62
2019-06-10T09:27:52.470Z,19.60
2019-06-10T09:28:53.795Z,19.47
2019-06-10T09:29:55.259Z,19.47
2019-06-10T09:30:54.012Z,19.33
2019-06-10T09:31:53.275Z,18.83
2019-06-10T09:32:55.662Z,18.73
2019-06-10T09:33:53.392Z,18.40
2019-06-10T09:34:54.781Z,18.42
2019-06-10T09:35:52.834Z,18.46
2019-06-10T09:36:56.400Z,18.67
2019-06-10T09:37:51.660Z,18.82
2019-06-10T09:38:54.777Z,18.80
2019-06-10T09:39:58.022Z,18.67
2019-06-10T09:40:59.910Z,18.78
2019-06-10T09:42:00.663Z,18.85
2019-06-10T09:42:53.015Z,18.91
2019-06-10T09:43:52.959Z,18.86
2019-06-10T09:44:52.615Z,18.79
2019-06-10T09:45:55.268Z,18.63
2019-06-10T09:46:52.027Z,18.51
2019-06-10T09:47:54.585Z,18.56
2019-06-10T09:48:55.665Z,18.42
2019-06-10T09:49:52.998Z,18.35
2019-06-10T09:50:53.569Z,18.25
2019-06-10T09:51:54.826Z,18.42
2019-06-10T09:52:53.447Z,18.46
2019-06-10T09:54:02.071Z,18.52
2019-06-10T09:54:56.374Z,18.63
2019-06-10T09:55:54.912Z,18.65
2019-06-10T09:56:54.455Z,18.71
2019-06-10T09:57:58.423Z,18.52
2019-06-10T09:58:52.762Z,18.32
2019-06-10T09:59:55.744Z,18.30
2019-06-10T10:00:55.259Z,18.27
2019-06-10T10:01:53.546Z,18.21
2019-06-10T10:02:52.613Z,18.13
2019-06-10T10:03:55.005Z,18.03
2019-06-10T10:04:52.923Z,17.98
2019-06-10T10:05:59.396Z,17.99
2019-06-10T10:06:54.352Z,18.06
2019-06-10T10:07:52.036Z,18.00
2019-06-10T10:08:57.555Z,17.91
2019-06-10T10:09:52.916Z,17.85
2019-06-10T10:10:57.788Z,17.78
2019-06-10T10:11:54.952Z,17.60
2019-06-10T10:12:52.212Z,17.48
2019-06-10T10:13:51.446Z,17.42
2019-06-10T10:14:52.083Z,17.24
2019-06-10T10:15:53.773Z,17.16
2019-06-10T10:16:52.820Z,17.03
2019-06-10T10:17:52.074Z,17.04
2019-06-10T10:18:56.586Z,16.94
2019-06-10T10:19:54.827Z,16.94
2019-06-10T10:20:53.170Z,16.95
2019-06-10T10:21:57.041Z,16.90
2019-06-10T10:22:54.204Z,16.88
2019-06-10T10:24:01.301Z,16.82
2019-06-10T10:24:52.061Z,16.68
2019-06-10T10:25:55.166Z,16.61
2019-06-10T10:26:52.383Z,16.73
2019-06-10T10:27:53.122Z,16.76
2019-06-10T10:28:53.199Z,16.83
2019-06-10T10:29:54.632Z,16.99
2019-06-10T10:30:54.865Z,16.88
2019-06-10T10:31:52.700Z,16.76
2019-06-10T10:32:52.449Z,16.68
2019-06-10T10:33:50.620Z,16.67
2019-06-10T10:34:52.505Z,16.62
2019-06-10T10:35:50.686Z,16.57
2019-06-10T10:36:55.023Z,16.52
2019-06-10T10:37:53.853Z,16.41
2019-06-10T10:38:50.839Z,16.35
2019-06-10T10:39:53.791Z,16.35
2019-06-10T10:40:56.023Z,16.42
2019-06-10T10:41:54.499Z,16.33
2019-06-10T10:42:58.709Z,16.29
2019-06-10T10:43:55.435Z,16.26
2019-06-10T10:44:52.958Z,16.28
2019-06-10T10:45:54.270Z,16.36
2019-06-10T10:46:54.047Z,16.46
2019-06-10T10:47:52.606Z,16.61
2019-06-10T10:48:51.578Z,16.75
2019-06-10T10:49:55.258Z,16.88
2019-06-10T10:50:55.520Z,16.83
2019-06-10T10:51:51.147Z,16.60
2019-06-10T10:52:52.354Z,16.60
2019-06-10T10:54:09.153Z,16.65
2019-06-10T10:54:51.882Z,16.64
2019-06-10T10:55:51.854Z,16.58
2019-06-10T10:56:55.152Z,16.57
2019-06-10T10:57:54.342Z,16.56
2019-06-10T10:58:54.946Z,16.59
2019-06-10T10:59:53.949Z,16.52
2019-06-10T11:00:54.000Z,16.58
2019-06-10T11:01:51.651Z,16.62
2019-06-10T11:02:51.135Z,16.60
2019-06-10T11:03:52.516Z,16.52
2019-06-10T11:04:53.341Z,16.54
2019-06-10T11:05:57.245Z,16.56
2019-06-10T11:06:53.908Z,16.52
2019-06-10T11:07:54.800Z,16.45
2019-06-10T11:08:51.671Z,16.47
2019-06-10T11:09:53.236Z,16.51
2019-06-10T11:10:55.495Z,16.55
2019-06-10T11:11:53.354Z,16.73
2019-06-10T11:12:51.664Z,16.87
2019-06-10T11:13:54.818Z,17.01
2019-06-10T11:14:54.071Z,17.13
2019-06-10T11:15:54.708Z,17.23
2019-06-10T11:16:54.553Z,17.30
2019-06-10T11:17:53.214Z,17.24
2019-06-10T11:18:53.782Z,17.26
2019-06-10T11:19:53.729Z,17.00
2019-06-10T11:20:51.516Z,17.09
2019-06-10T11:21:51.597Z,17.01
2019-06-10T11:22:51.587Z,16.91
2019-06-10T11:23:50.645Z,16.90
2019-06-10T11:24:53.568Z,16.86
2019-06-10T11:25:53.738Z,16.63
2019-06-10T11:26:53.245Z,16.46
2019-06-10T11:27:52.718Z,16.41
2019-06-10T11:28:54.384Z,16.52
2019-06-10T11:29:53.138Z,16.52
2019-06-10T11:30:52.709Z,16.31
2019-06-10T11:31:53.373Z,16.22
2019-06-10T11:32:55.328Z,16.21
2019-06-10T11:33:53.869Z,16.25
2019-06-10T11:34:53.602Z,16.21
2019-06-10T11:35:53.570Z,16.23
2019-06-10T11:36:53.523Z,16.18
2019-06-10T11:37:51.724Z,16.11
2019-06-10T11:38:53.013Z,16.16
2019-06-10T11:39:50.664Z,16.25
2019-06-10T11:40:52.454Z,16.21
2019-06-10T11:41:52.855Z,16.18
2019-06-10T11:42:53.807Z,16.30
2019-06-10T11:43:53.707Z,16.30
2019-06-10T11:44:54.375Z,16.22
2019-06-10T11:45:56.870Z,16.24
2019-06-10T11:46:53.951Z,16.30
2019-06-10T11:47:51.662Z,16.25
2019-06-10T11:48:53.920Z,16.12
2019-06-10T11:49:53.454Z,16.12
2019-06-10T11:50:54.370Z,16.13
2019-06-10T11:51:53.575Z,16.14
2019-06-10T11:52:55.500Z,16.13
2019-06-10T11:53:54.348Z,16.17
2019-06-10T11:54:58.288Z,16.08
2019-06-10T11:55:51.685Z,16.11
2019-06-10T11:56:54.611Z,16.10
2019-06-10T11:57:53.399Z,16.13
2019-06-10T11:58:53.412Z,16.02
2019-06-10T11:59:52.554Z,15.96
2019-06-10T12:00:54.293Z,15.94
2019-06-10T12:01:52.593Z,15.98
2019-06-10T12:02:52.761Z,15.99
2019-06-10T12:03:53.439Z,15.96
2019-06-10T12:04:53.173Z,16.00
2019-06-10T12:05:53.091Z,16.07
2019-06-10T12:06:51.201Z,16.06
2019-06-10T12:07:51.819Z,16.08
2019-06-10T12:08:54.096Z,16.10
2019-06-10T12:09:51.592Z,15.96
2019-06-10T12:10:51.985Z,15.89
2019-06-10T12:11:52.052Z,15.81
2019-06-10T12:12:54.756Z,15.77
2019-06-10T12:13:53.685Z,15.77
2019-06-10T12:14:53.907Z,15.75
2019-06-10T12:16:32.536Z,15.76
2019-06-10T12:17:17.584Z,15.77
2019-06-10T12:17:57.791Z,15.73
2019-06-10T12:18:51.654Z,15.69
2019-06-10T12:19:55.591Z,15.67
2019-06-10T12:20:55.133Z,15.69
2019-06-10T12:21:55.685Z,15.70
2019-06-10T12:22:54.849Z,15.68
2019-06-10T12:23:54.839Z,15.67
2019-06-10T12:24:57.750Z,15.63
2019-06-10T12:25:54.448Z,15.61
2019-06-10T12:26:53.479Z,15.63
2019-06-10T12:27:55.107Z,15.64
2019-06-10T12:28:53.126Z,15.67
2019-06-10T12:29:53.028Z,15.69
2019-06-10T12:30:54.404Z,15.65
2019-06-10T12:31:53.066Z,15.66
2019-06-10T12:32:53.840Z,15.66
2019-06-10T12:33:53.402Z,15.63
2019-06-10T12:34:51.298Z,15.62
2019-06-10T12:35:51.832Z,15.63
2019-06-10T12:36:55.832Z,15.62
2019-06-10T12:37:51.917Z,15.63
2019-06-10T12:38:53.395Z,15.59
2019-06-10T12:39:52.711Z,15.58
2019-06-10T12:40:52.413Z,15.60
2019-06-10T12:41:54.827Z,15.64
2019-06-10T12:42:53.109Z,15.63
2019-06-10T12:43:52.272Z,15.62
2019-06-10T12:44:53.815Z,15.65
2019-06-10T12:45:52.676Z,15.66
2019-06-10T12:46:54.913Z,15.67
2019-06-10T12:47:53.322Z,15.70
2019-06-10T12:48:53.980Z,15.86
2019-06-10T12:49:53.359Z,15.85
2019-06-10T12:50:53.253Z,15.86
2019-06-10T12:51:52.897Z,15.86
2019-06-10T12:52:52.944Z,15.90